createdAt,value
2023-03-15T00:02:28.752Z,17.42
2023-03-15T00:05:13.982Z,15.35
2023-03-15T00:07:59.719Z,19.20
2023-03-15T00:10:47.195Z,12.45
2023-03-15T00:13:33.531Z,12.43
2023-03-15T00:16:19.131Z,15.73
2023-03-15T00:19:04.574Z,13.88
2023-03-15T00:21:49.896Z,15.25
2023-03-15T00:24:35.523Z,19.20
2023-03-15T00:27:20.860Z,13.30
2023-03-15T00:30:07.091Z,15.35
2023-03-15T00:32:56.233Z,15.82
2023-03-15T00:35:43.859Z,21.90
2023-03-15T00:38:29.572Z,40.70
2023-03-15T00:41:17.523Z,37.45
2023-03-15T00:44:04.245Z,24.35
2023-03-15T00:46:50.708Z,26.20
2023-03-15T00:49:36.014Z,26.58
2023-03-15T00:52:22.078Z,27.42
2023-03-15T00:55:13.942Z,30.67
2023-03-15T00:57:59.443Z,30.42
2023-03-15T01:00:46.836Z,21.20
2023-03-15T01:03:32.223Z,34.90
2023-03-15T01:06:20.682Z,27.00
2023-03-15T01:09:06.552Z,27.63
2023-03-15T01:11:52.027Z,22.50
2023-03-15T01:14:39.078Z,22.75
2023-03-15T01:17:24.531Z,19.88
2023-03-15T01:20:13.221Z,20.98
2023-03-15T01:22:59.517Z,20.80
2023-03-15T01:25:45.083Z,16.92
2023-03-15T01:28:30.669Z,14.18
2023-03-15T01:31:25.680Z,13.55
2023-03-15T01:34:11.195Z,15.20
2023-03-15T01:36:56.598Z,16.15
2023-03-15T01:39:48.895Z,15.45
2023-03-15T01:42:54.055Z,19.67
2023-03-15T01:46:04.580Z,15.32
2023-03-15T01:49:02.356Z,9.18
2023-03-15T01:52:06.977Z,15.30
2023-03-15T01:55:19.545Z,12.20
2023-03-15T01:58:28.810Z,16.52
2023-03-15T02:01:16.372Z,12.90
2023-03-15T02:04:11.774Z,8.73
2023-03-15T02:07:03.688Z,13.98
2023-03-15T02:10:01.471Z,9.45
2023-03-15T02:12:53.102Z,12.25
2023-03-15T02:15:39.327Z,9.45
2023-03-15T02:18:26.261Z,8.73
2023-03-15T02:21:21.713Z,12.93
2023-03-15T02:24:12.990Z,13.60
2023-03-15T02:26:58.826Z,12.88
2023-03-15T02:29:44.081Z,12.52
2023-03-15T02:32:31.523Z,13.13
2023-03-15T02:35:29.638Z,10.15
2023-03-15T02:38:15.430Z,11.70
2023-03-15T02:41:03.768Z,10.23
2023-03-15T02:43:53.351Z,15.00
2023-03-15T02:46:38.743Z,10.00
2023-03-15T02:49:29.981Z,17.38
2023-03-15T02:52:15.629Z,15.93
2023-03-15T02:55:02.245Z,11.88
2023-03-15T02:57:48.285Z,13.57
2023-03-15T03:00:33.933Z,17.08
2023-03-15T03:03:19.284Z,14.68
2023-03-15T03:06:05.130Z,10.68
2023-03-15T03:08:51.120Z,9.43
2023-03-15T03:11:39.046Z,12.38
2023-03-15T03:14:24.768Z,11.32
2023-03-15T03:17:10.290Z,13.45
2023-03-15T03:19:57.323Z,14.85
2023-03-15T03:22:50.421Z,15.50
2023-03-15T03:25:37.577Z,14.35
2023-03-15T03:28:27.909Z,14.90
2023-03-15T03:31:35.474Z,11.75
2023-03-15T03:34:22.437Z,9.70
2023-03-15T03:37:09.190Z,10.70
2023-03-15T03:40:09.293Z,14.27
2023-03-15T03:42:55.301Z,10.35
2023-03-15T03:45:41.756Z,9.43
2023-03-15T03:48:28.935Z,10.30
2023-03-15T03:51:14.593Z,12.45
2023-03-15T03:54:00.116Z,25.35
2023-03-15T03:56:45.537Z,21.90
2023-03-15T03:59:31.500Z,16.00
2023-03-15T04:02:22.566Z,15.02
2023-03-15T04:05:17.040Z,13.57
2023-03-15T04:08:03.477Z,11.20
2023-03-15T04:10:56.961Z,16.50
2023-03-15T04:13:45.533Z,23.60
2023-03-15T04:16:31.260Z,13.40
2023-03-15T04:19:20.573Z,12.80
2023-03-15T04:22:06.683Z,8.77
2023-03-15T04:25:05.666Z,18.60
2023-03-15T04:28:12.812Z,18.10
2023-03-15T04:31:14.978Z,14.15
2023-03-15T04:34:17.715Z,13.73
2023-03-15T04:37:35.588Z,13.75
2023-03-15T04:40:54.923Z,12.15
2023-03-15T04:43:58.685Z,13.98
2023-03-15T04:47:06.686Z,17.83
2023-03-15T04:50:10.581Z,20.52
2023-03-15T04:53:18.912Z,16.45
2023-03-15T04:56:25.112Z,17.98
2023-03-15T04:59:26.802Z,23.02
2023-03-15T05:02:31.159Z,22.67
2023-03-15T05:05:25.546Z,23.70
2023-03-15T05:08:10.965Z,26.13
2023-03-15T05:11:12.440Z,20.88
2023-03-15T05:14:15.460Z,20.42
2023-03-15T05:17:20.049Z,35.63
2023-03-15T05:20:26.022Z,30.60
2023-03-15T05:23:30.178Z,16.13
2023-03-15T05:26:28.579Z,13.77
2023-03-15T05:29:51.393Z,27.48
2023-03-15T05:33:16.027Z,42.33
2023-03-15T05:36:08.552Z,35.70
2023-03-15T05:39:18.508Z,28.33
2023-03-15T05:42:27.506Z,27.65
2023-03-15T05:45:37.423Z,18.90
2023-03-15T05:48:22.721Z,20.38
2023-03-15T05:51:15.192Z,17.83
2023-03-15T05:54:23.136Z,12.57
2023-03-15T05:57:28.879Z,8.40
2023-03-15T06:00:39.202Z,12.23
2023-03-15T06:03:34.085Z,10.70
2023-03-15T06:06:31.524Z,9.95
2023-03-15T06:09:18.095Z,8.80
2023-03-15T06:12:05.277Z,11.98
2023-03-15T06:14:50.669Z,13.93
2023-03-15T06:17:36.537Z,10.18
2023-03-15T06:20:21.972Z,13.63
2023-03-15T06:23:07.813Z,16.40
2023-03-15T06:26:15.122Z,12.57
2023-03-15T06:29:01.155Z,8.75
2023-03-15T06:31:48.094Z,11.07
2023-03-15T06:34:34.016Z,15.02
2023-03-15T06:37:29.024Z,20.17
2023-03-15T06:40:20.415Z,49.65
2023-03-15T06:43:07.515Z,44.95
2023-03-15T06:45:55.978Z,48.03
2023-03-15T06:48:41.644Z,43.58
2023-03-15T06:51:29.563Z,30.10
2023-03-15T06:54:14.945Z,21.58
2023-03-15T06:57:00.902Z,14.82
2023-03-15T06:59:46.196Z,26.05
2023-03-15T07:02:37.107Z,28.02
2023-03-15T07:05:22.561Z,15.98
2023-03-15T07:08:08.067Z,15.30
2023-03-15T07:10:54.003Z,23.67
2023-03-15T07:13:39.323Z,13.70
2023-03-15T07:16:25.885Z,17.35
2023-03-15T07:19:11.478Z,19.67
2023-03-15T07:21:56.843Z,16.73
2023-03-15T07:24:42.222Z,11.48
2023-03-15T07:27:27.660Z,8.18
2023-03-15T07:30:13.589Z,8.85
2023-03-15T07:32:59.079Z,9.77
2023-03-15T07:35:45.548Z,10.10
2023-03-15T07:38:31.209Z,12.00
2023-03-15T07:41:17.589Z,12.13
2023-03-15T07:44:24.133Z,13.30
2023-03-15T07:47:09.872Z,10.85
2023-03-15T07:49:55.691Z,10.70
2023-03-15T07:52:41.088Z,18.67
2023-03-15T07:55:26.721Z,10.50
2023-03-15T07:58:12.055Z,10.68
2023-03-15T08:00:58.281Z,14.68
2023-03-15T08:03:43.916Z,19.48
2023-03-15T08:06:29.974Z,13.68
2023-03-15T08:09:16.647Z,10.60
2023-03-15T08:12:02.667Z,13.20
2023-03-15T08:14:48.451Z,14.27
2023-03-15T08:17:37.287Z,13.32
2023-03-15T08:20:23.069Z,10.13
2023-03-15T08:23:09.270Z,13.27
2023-03-15T08:25:56.976Z,13.32
2023-03-15T08:28:44.543Z,7.38
2023-03-15T08:31:33.459Z,4.97
2023-03-15T08:34:19.112Z,5.43
2023-03-15T08:37:04.780Z,6.05
2023-03-15T08:39:57.912Z,3.90
2023-03-15T08:42:43.614Z,2.75
2023-03-15T08:45:29.250Z,2.60
2023-03-15T08:48:15.001Z,3.15
2023-03-15T08:51:05.421Z,2.40
2023-03-15T08:53:52.923Z,2.03
2023-03-15T08:56:39.989Z,2.10
2023-03-15T08:59:31.679Z,2.28
2023-03-15T09:02:18.517Z,2.53
2023-03-15T09:05:07.233Z,2.72
2023-03-15T09:07:53.323Z,3.25
2023-03-15T09:10:38.689Z,1.67
2023-03-15T09:13:24.816Z,1.83
2023-03-15T09:16:10.258Z,1.50
2023-03-15T09:18:55.651Z,2.03
2023-03-15T09:21:41.858Z,1.63
2023-03-15T09:24:27.984Z,2.47
2023-03-15T09:27:13.619Z,3.78
2023-03-15T09:29:59.365Z,2.58
2023-03-15T09:32:45.934Z,4.07
2023-03-15T09:35:31.435Z,3.33
2023-03-15T09:38:16.870Z,2.38
2023-03-15T09:41:03.810Z,1.40
2023-03-15T09:43:49.376Z,9.57
2023-03-15T09:46:55.488Z,2.30
2023-03-15T09:50:06.218Z,0.95
2023-03-15T09:52:58.565Z,2.75
2023-03-15T09:55:47.552Z,0.88
2023-03-15T09:58:34.844Z,1.13
2023-03-15T10:01:25.870Z,1.67
2023-03-15T10:04:37.307Z,1.77
2023-03-15T10:07:23.428Z,2.60
2023-03-15T10:10:16.240Z,1.50
2023-03-15T10:13:29.262Z,1.02
2023-03-15T10:16:21.027Z,1.20
2023-03-15T10:19:21.168Z,1.40
2023-03-15T10:22:12.865Z,2.78
2023-03-15T10:28:10.810Z,2.22
2023-03-15T10:31:00.177Z,2.50
2023-03-15T10:33:48.371Z,1.73
2023-03-15T10:36:34.179Z,1.77
2023-03-15T10:39:20.039Z,2.60
2023-03-15T10:42:05.821Z,1.73
2023-03-15T10:44:51.092Z,0.55
2023-03-15T10:47:45.203Z,1.92
2023-03-15T10:50:33.925Z,2.17
2023-03-15T10:53:25.642Z,2.38
2023-03-15T10:56:21.944Z,3.10
2023-03-15T10:59:16.526Z,4.88
2023-03-15T11:02:14.385Z,1.20
2023-03-15T11:05:19.567Z,2.22
2023-03-15T11:08:16.180Z,1.73
2023-03-15T11:11:02.088Z,2.97
2023-03-15T11:14:01.528Z,3.00
2023-03-15T11:16:52.468Z,0.82
2023-03-15T11:19:42.253Z,0.90
2023-03-15T11:22:27.666Z,1.05
2023-03-15T11:25:17.684Z,2.33
2023-03-15T11:28:04.475Z,1.65
2023-03-15T11:30:50.536Z,1.02
2023-03-15T11:33:43.563Z,1.10
2023-03-15T11:36:34.687Z,2.20
2023-03-15T11:39:34.768Z,2.17
2023-03-15T11:42:32.664Z,2.92
2023-03-15T11:45:27.062Z,1.10
2023-03-15T11:48:34.357Z,2.40
2023-03-15T11:51:20.005Z,0.70
2023-03-15T11:54:10.462Z,0.80
2023-03-15T11:57:06.251Z,0.63
2023-03-15T11:59:51.902Z,0.85
2023-03-15T12:02:51.562Z,0.88
2023-03-15T12:06:18.795Z,0.50
2023-03-15T12:09:33.250Z,1.27
2023-03-15T12:12:24.977Z,2.67
2023-03-15T12:15:19.630Z,1.40
2023-03-15T12:18:09.027Z,0.65
2023-03-15T12:21:10.932Z,1.15
2023-03-15T12:24:01.514Z,1.13
2023-03-15T12:26:49.795Z,1.02
2023-03-15T12:29:36.301Z,2.35
2023-03-15T12:32:21.698Z,1.10
2023-03-15T12:35:17.568Z,1.48
2023-03-15T12:38:03.142Z,2.05
2023-03-15T12:40:56.556Z,0.85
2023-03-15T12:43:46.459Z,6.10
2023-03-15T12:46:41.361Z,6.18
2023-03-15T12:49:26.824Z,2.08
2023-03-15T12:52:13.491Z,3.90
2023-03-15T12:55:05.958Z,1.70
2023-03-15T12:57:58.018Z,1.48
2023-03-15T13:00:44.582Z,1.75
2023-03-15T13:03:30.381Z,1.60
2023-03-15T13:06:24.725Z,2.00
2023-03-15T13:09:35.320Z,1.15
2023-03-15T13:12:47.687Z,0.80
2023-03-15T13:16:06.632Z,2.00
2023-03-15T13:19:05.461Z,0.75
2023-03-15T13:22:09.797Z,13.88
2023-03-15T13:24:58.436Z,16.40
2023-03-15T13:27:55.849Z,5.15
2023-03-15T13:30:46.584Z,0.88
2023-03-15T13:33:32.753Z,6.55
2023-03-15T13:36:23.502Z,9.20
2023-03-15T13:39:16.420Z,3.70
2023-03-15T13:42:05.960Z,0.88
2023-03-15T13:45:14.135Z,3.80
2023-03-15T13:48:04.848Z,2.88
2023-03-15T13:50:54.730Z,6.35
2023-03-15T13:53:49.606Z,5.20
2023-03-15T13:56:49.714Z,4.53
2023-03-15T13:59:40.445Z,2.33
2023-03-15T14:02:36.785Z,9.43
2023-03-15T14:05:28.976Z,8.85
2023-03-15T14:08:23.046Z,10.18
2023-03-15T14:11:18.025Z,8.95
2023-03-15T14:14:23.443Z,2.92
2023-03-15T14:17:24.558Z,6.22
2023-03-15T14:20:16.064Z,5.03
2023-03-15T14:23:04.177Z,4.72
2023-03-15T14:26:15.176Z,3.42
2023-03-15T14:29:16.568Z,1.92
2023-03-15T14:32:05.797Z,1.13
2023-03-15T14:35:00.021Z,1.60
2023-03-15T14:37:46.881Z,1.90
2023-03-15T14:40:38.690Z,1.90
2023-03-15T14:43:24.481Z,2.43
2023-03-15T14:46:10.065Z,2.38
2023-03-15T14:48:55.350Z,2.35
2023-03-15T14:51:40.612Z,1.75
2023-03-15T14:54:26.331Z,1.63
2023-03-15T14:57:11.910Z,2.72
2023-03-15T14:59:57.227Z,2.28
2023-03-15T15:02:47.980Z,2.45
2023-03-15T15:05:35.483Z,1.85
2023-03-15T15:08:22.493Z,1.90
2023-03-15T15:11:08.991Z,4.55
2023-03-15T15:13:54.906Z,4.07
2023-03-15T15:16:41.983Z,2.25
2023-03-15T15:19:28.349Z,2.40
2023-03-15T15:22:14.353Z,0.98
2023-03-15T15:25:01.497Z,3.78
2023-03-15T15:27:49.012Z,5.00
2023-03-15T15:30:35.202Z,3.40
2023-03-15T15:33:20.817Z,4.68
2023-03-15T15:36:12.257Z,2.33
2023-03-15T15:38:58.245Z,3.38
2023-03-15T15:41:43.934Z,3.90
2023-03-15T15:44:29.632Z,9.63
2023-03-15T15:47:15.761Z,6.57
2023-03-15T15:50:01.725Z,7.90
2023-03-15T15:52:52.597Z,5.63
2023-03-15T15:55:40.430Z,6.38
2023-03-15T15:58:26.639Z,7.07
2023-03-15T16:01:14.244Z,4.53
2023-03-15T16:04:02.169Z,4.80
2023-03-15T16:06:54.527Z,5.65
2023-03-15T16:09:44.159Z,5.35
2023-03-15T16:12:34.172Z,5.65
2023-03-15T16:15:22.540Z,8.07
2023-03-15T16:18:11.929Z,11.00
2023-03-15T16:20:59.230Z,5.68
2023-03-15T16:23:50.710Z,3.85
2023-03-15T16:26:38.228Z,5.53
2023-03-15T16:29:27.366Z,4.93
2023-03-15T16:32:29.778Z,6.72
2023-03-15T16:35:27.849Z,4.45
2023-03-15T16:38:24.110Z,5.07
2023-03-15T16:41:18.300Z,3.25
2023-03-15T16:44:14.981Z,4.63
2023-03-15T16:47:01.953Z,4.82
2023-03-15T16:49:47.638Z,6.30
2023-03-15T16:52:33.763Z,5.32
2023-03-15T16:55:26.186Z,5.72
2023-03-15T16:58:17.956Z,4.20
2023-03-15T17:01:03.708Z,8.55
2023-03-15T17:03:49.172Z,5.57
2023-03-15T17:06:35.218Z,3.72
2023-03-15T17:09:23.422Z,4.97
2023-03-15T17:12:22.865Z,6.85
2023-03-15T17:15:10.428Z,6.70
2023-03-15T17:17:58.673Z,7.75
2023-03-15T17:20:45.639Z,9.43
2023-03-15T17:23:31.931Z,5.13
2023-03-15T17:26:21.109Z,6.43
2023-03-15T17:29:07.430Z,7.15
2023-03-15T17:31:53.506Z,8.90
2023-03-15T17:34:38.906Z,7.63
2023-03-15T17:37:25.810Z,15.38
2023-03-15T17:40:23.767Z,14.38
2023-03-15T17:43:12.766Z,8.98
2023-03-15T17:45:58.088Z,12.85
2023-03-15T17:48:43.488Z,9.80
2023-03-15T17:51:31.598Z,6.93
2023-03-15T17:54:18.437Z,7.10
2023-03-15T17:57:05.068Z,7.95
2023-03-15T17:59:51.383Z,10.05
2023-03-15T18:02:40.721Z,7.53
2023-03-15T18:05:29.970Z,10.30
2023-03-15T18:08:18.523Z,7.80
2023-03-15T18:11:11.891Z,10.85
2023-03-15T18:13:57.247Z,7.05
2023-03-15T18:16:43.465Z,5.85
2023-03-15T18:19:29.086Z,6.65
2023-03-15T18:22:17.029Z,9.00
2023-03-15T18:25:04.903Z,9.20
2023-03-15T18:27:51.349Z,7.13
2023-03-15T18:30:37.104Z,6.05
2023-03-15T18:33:22.841Z,9.93
2023-03-15T18:36:08.920Z,9.98
2023-03-15T18:38:55.093Z,7.88
2023-03-15T18:41:40.750Z,12.70
2023-03-15T18:44:26.131Z,10.13
2023-03-15T18:47:11.566Z,10.18
2023-03-15T18:50:04.441Z,7.82
2023-03-15T18:52:55.743Z,13.02
2023-03-15T18:55:40.848Z,8.55
2023-03-15T18:58:27.824Z,13.32
2023-03-15T19:01:13.555Z,10.43
2023-03-15T19:03:59.174Z,32.45
2023-03-15T19:06:44.679Z,10.90
2023-03-15T19:09:30.055Z,9.57
2023-03-15T19:12:15.295Z,10.60
2023-03-15T19:15:01.314Z,8.20
2023-03-15T19:17:48.685Z,8.10
2023-03-15T19:20:34.970Z,7.10
2023-03-15T19:23:21.096Z,9.27
2023-03-15T19:26:07.043Z,8.40
2023-03-15T19:28:52.821Z,7.05
2023-03-15T19:31:38.943Z,13.77
2023-03-15T19:34:25.308Z,11.60
2023-03-15T19:37:10.713Z,5.70
2023-03-15T19:39:56.182Z,5.65
2023-03-15T19:42:42.493Z,6.55
2023-03-15T19:45:28.472Z,11.52
2023-03-15T19:48:16.117Z,8.57
2023-03-15T19:51:02.437Z,4.20
2023-03-15T19:53:48.346Z,6.35
2023-03-15T19:56:33.869Z,9.18
2023-03-15T19:59:19.638Z,5.80
2023-03-15T20:02:06.022Z,8.60
2023-03-15T20:04:51.596Z,6.63
2023-03-15T20:07:37.718Z,5.20
2023-03-15T20:10:23.980Z,8.65
2023-03-15T20:13:10.864Z,6.85
2023-03-15T20:15:57.352Z,4.18
2023-03-15T20:18:42.998Z,5.40
2023-03-15T20:21:29.643Z,3.22
2023-03-15T20:24:15.187Z,9.52
2023-03-15T20:27:00.612Z,8.30
2023-03-15T20:29:46.215Z,32.55
2023-03-15T20:32:32.090Z,16.63
2023-03-15T20:35:17.792Z,22.85
2023-03-15T20:38:06.934Z,18.52
2023-03-15T20:40:56.626Z,10.45
2023-03-15T20:43:42.058Z,35.78
2023-03-15T20:46:27.856Z,18.85
2023-03-15T20:49:14.280Z,21.75
2023-03-15T20:51:59.793Z,16.52
2023-03-15T20:54:45.210Z,14.02
2023-03-15T20:57:31.286Z,16.52
2023-03-15T21:00:20.496Z,11.93
2023-03-15T21:03:10.994Z,12.30
2023-03-15T21:05:57.748Z,12.93
2023-03-15T21:08:43.924Z,7.80
2023-03-15T21:11:30.828Z,7.88
2023-03-15T21:14:16.306Z,10.82
2023-03-15T21:17:01.923Z,19.83
2023-03-15T21:19:47.487Z,20.27
2023-03-15T21:22:32.971Z,29.73
2023-03-15T21:25:18.826Z,44.13
2023-03-15T21:28:04.740Z,14.80
2023-03-15T21:30:52.455Z,18.92
2023-03-15T21:33:38.585Z,19.58
2023-03-15T21:36:23.995Z,14.30
2023-03-15T21:39:10.835Z,17.67
2023-03-15T21:41:56.192Z,10.45
2023-03-15T21:44:41.740Z,15.10
2023-03-15T21:47:27.680Z,14.30
2023-03-15T21:50:13.384Z,5.97
2023-03-15T21:52:58.668Z,7.88
2023-03-15T21:55:46.183Z,8.95
2023-03-15T21:58:31.691Z,9.88
2023-03-15T22:01:17.113Z,12.75
2023-03-15T22:04:02.687Z,6.32
2023-03-15T22:06:48.177Z,9.00
2023-03-15T22:09:33.492Z,6.45
2023-03-15T22:12:18.781Z,13.00
2023-03-15T22:15:06.370Z,12.88
2023-03-15T22:17:51.847Z,9.50
2023-03-15T22:20:38.033Z,7.10
2023-03-15T22:23:24.096Z,6.75
2023-03-15T22:26:09.825Z,6.20
2023-03-15T22:28:56.051Z,6.43
2023-03-15T22:31:41.530Z,8.70
2023-03-15T22:34:27.599Z,5.22
2023-03-15T22:37:14.438Z,6.93
2023-03-15T22:40:00.656Z,4.43
2023-03-15T22:42:46.918Z,5.60
2023-03-15T22:45:32.539Z,6.53
2023-03-15T22:48:18.076Z,6.88
2023-03-15T22:51:14.244Z,6.25
2023-03-15T22:53:59.997Z,4.57
2023-03-15T22:56:45.387Z,9.52
2023-03-15T22:59:30.765Z,4.88
2023-03-15T23:02:15.987Z,5.88
2023-03-15T23:05:01.677Z,8.32
2023-03-15T23:07:47.682Z,17.73
2023-03-15T23:10:33.759Z,13.70
2023-03-15T23:13:19.313Z,21.02
2023-03-15T23:16:04.882Z,12.05
2023-03-15T23:18:50.430Z,18.95
2023-03-15T23:21:35.979Z,20.38
2023-03-15T23:24:22.693Z,21.58
2023-03-15T23:27:08.553Z,21.02
2023-03-15T23:29:55.217Z,34.33
2023-03-15T23:32:42.057Z,21.98
2023-03-15T23:35:28.747Z,6.28
2023-03-15T23:38:14.433Z,7.03
2023-03-15T23:41:01.040Z,10.45
2023-03-15T23:43:46.698Z,7.28
2023-03-15T23:46:36.107Z,9.43
2023-03-15T23:49:26.508Z,15.73
2023-03-15T23:52:11.998Z,10.25
2023-03-15T23:54:57.283Z,6.20
2023-03-15T23:57:43.351Z,12.48
